Time;durP1;ratioP1;P1;durP2;ratioP2;P2;SDS_P1;SDS_P2;PMS_P1;PMS_P2;Temp;Humidity;BMP_temperature;BMP_pressure;BME280_temperature;BME280_humidity;BME280_pressure;Samples;Min_cycle;Max_cycle;Signal;HPM_P1;HPM_P2
2021/08/19 00:01:12;;;;;;;34.95;22.13;;;15.30;99.90;;;;;;4981683;28;20055;-76
2021/08/19 00:03:38;;;;;;;34.25;21.92;;;15.40;99.90;;;;;;4965008;28;20042;-76
2021/08/19 00:06:05;;;;;;;35.42;23.67;;;15.40;99.90;;;;;;4982662;28;20466;-77
2021/08/19 00:08:32;;;;;;;35.83;21.58;;;15.50;99.90;;;;;;4979643;28;20444;-75
2021/08/19 00:10:59;;;;;;;34.92;22.77;;;15.50;99.90;;;;;;4966572;28;20066;-76
2021/08/19 00:13:28;;;;;;;34.13;22.48;;;15.50;99.90;;;;;;4988235;28;20069;-77
2021/08/19 00:15:56;;;;;;;32.00;21.17;;;15.50;99.90;;;;;;5001008;28;20509;-76
2021/08/19 00:18:23;;;;;;;37.33;22.58;;;15.40;99.90;;;;;;4970660;28;20150;-77
2021/08/19 00:20:50;;;;;;;33.45;21.85;;;15.50;99.90;;;;;;4981571;28;20509;-76
2021/08/19 00:23:17;;;;;;;33.92;22.80;;;15.40;99.90;;;;;;4983779;28;20077;-76
2021/08/19 00:25:44;;;;;;;37.03;22.45;;;15.50;99.90;;;;;;4981791;28;20050;-77
2021/08/19 00:28:11;;;;;;;34.70;22.45;;;15.50;99.90;;;;;;4998498;28;20073;-76
2021/08/19 00:30:39;;;;;;;35.08;22.52;;;15.50;99.90;;;;;;5015132;28;20536;-76
2021/08/19 00:33:05;;;;;;;34.35;23.48;;;15.40;99.90;;;;;;4982728;28;20499;-76
2021/08/19 00:35:32;;;;;;;32.85;21.98;;;15.50;99.90;;;;;;4985136;28;20073;-76
2021/08/19 00:38:01;;;;;;;35.45;23.42;;;15.40;99.90;;;;;;4950916;28;20051;-75
2021/08/19 00:40:28;;;;;;;31.58;22.77;;;15.50;99.90;;;;;;4980895;28;20054;-76
2021/08/19 00:42:57;;;;;;;31.90;22.25;;;15.40;99.90;;;;;;4983035;28;20521;-76
2021/08/19 00:45:25;;;;;;;31.08;21.48;;;15.40;99.90;;;;;;4984990;28;20054;-76
2021/08/19 00:47:52;;;;;;;33.45;22.10;;;15.40;99.90;;;;;;4999750;28;20043;-76
2021/08/19 00:50:19;;;;;;;34.85;23.08;;;15.40;99.90;;;;;;4999081;28;20458;-77
2021/08/19 00:52:46;;;;;;;33.08;22.42;;;15.40;99.90;;;;;;4984143;28;20074;-76
2021/08/19 00:55:16;;;;;;;34.80;23.92;;;15.40;99.90;;;;;;4981649;28;20237;-76
2021/08/19 00:57:45;;;;;;;36.42;23.63;;;15.50;99.90;;;;;;4981779;28;20767;-76
2021/08/19 01:00:13;;;;;;;35.47;23.30;;;15.50;99.90;;;;;;4983565;28;20050;-76
2021/08/19 01:02:48;;;;;;;34.25;24.33;;;15.50;99.90;;;;;;4982097;28;20108;-76
2021/08/19 01:05:18;;;;;;;32.97;23.33;;;15.50;99.90;;;;;;4998289;28;20046;-76
2021/08/19 01:07:46;;;;;;;33.95;24.05;;;15.50;99.90;;;;;;4998514;28;20346;-77
2021/08/19 01:10:13;;;;;;;32.53;23.20;;;15.40;99.90;;;;;;4981285;28;20502;-76
2021/08/19 01:12:42;;;;;;;37.22;24.23;;;15.40;99.90;;;;;;4986244;28;20030;-76
2021/08/19 01:15:10;;;;;;;34.45;23.80;;;15.50;99.90;;;;;;4987690;28;20073;-76
2021/08/19 01:17:37;;;;;;;34.97;24.02;;;15.50;99.90;;;;;;4980232;28;20087;-76
2021/08/19 01:20:05;;;;;;;37.10;23.85;;;15.50;99.90;;;;;;4969823;28;20054;-76
2021/08/19 01:22:33;;;;;;;36.20;20.98;;;15.50;99.90;;;;;;4977514;28;20112;-76
2021/08/19 01:25:00;;;;;;;37.55;23.40;;;15.50;99.90;;;;;;4987306;28;20109;-76
2021/08/19 01:27:29;;;;;;;35.35;24.00;;;15.50;99.90;;;;;;4968155;28;20058;-76
2021/08/19 01:29:55;;;;;;;34.55;23.25;;;15.50;99.90;;;;;;4969796;28;20081;-76
2021/08/19 01:32:22;;;;;;;33.80;22.50;;;15.50;99.90;;;;;;4969544;28;20561;-76
2021/08/19 01:34:52;;;;;;;34.30;24.27;;;15.50;99.90;;;;;;4985121;28;20047;-77
2021/08/19 01:37:19;;;;;;;36.25;25.08;;;15.50;99.90;;;;;;4984788;28;20463;-76
2021/08/19 01:39:45;;;;;;;42.63;25.77;;;15.60;99.90;;;;;;4999856;28;20045;-76
2021/08/19 01:42:12;;;;;;;37.38;24.73;;;15.60;99.90;;;;;;4969281;28;20053;-77
2021/08/19 01:44:40;;;;;;;36.85;25.00;;;15.60;99.90;;;;;;4976227;28;20057;-76
2021/08/19 01:47:09;;;;;;;35.13;24.92;;;15.60;99.90;;;;;;5019519;28;20534;-76
2021/08/19 01:49:36;;;;;;;34.83;24.38;;;15.60;99.90;;;;;;4969183;28;20136;-76
2021/08/19 01:52:04;;;;;;;37.25;26.13;;;15.60;99.90;;;;;;5000995;28;20046;-77
2021/08/19 01:54:32;;;;;;;41.92;25.40;;;15.60;99.90;;;;;;4973503;28;20465;-77
2021/08/19 01:56:59;;;;;;;38.28;25.73;;;15.60;99.90;;;;;;4952953;28;20054;-76
2021/08/19 01:59:29;;;;;;;43.22;27.58;;;15.60;99.90;;;;;;4984775;28;20126;-76
2021/08/19 02:01:57;;;;;;;41.08;24.80;;;15.70;99.90;;;;;;4984424;28;20058;-77
2021/08/19 02:04:24;;;;;;;40.00;25.75;;;15.70;99.90;;;;;;5017538;28;20258;-76
2021/08/19 02:06:51;;;;;;;41.25;26.23;;;15.70;99.90;;;;;;4967931;28;20049;-76
2021/08/19 02:09:18;;;;;;;37.42;25.65;;;15.70;99.90;;;;;;4984199;28;20317;-77
2021/08/19 02:11:45;;;;;;;37.90;26.27;;;15.70;99.90;;;;;;4999858;28;20138;-76
2021/08/19 02:14:11;;;;;;;40.17;27.13;;;15.80;99.90;;;;;;4979513;28;20038;-76
2021/08/19 02:16:39;;;;;;;46.90;30.27;;;15.80;99.90;;;;;;4986961;28;20647;-76
2021/08/19 02:19:05;;;;;;;45.17;29.00;;;15.70;99.90;;;;;;4983080;28;20070;-76
2021/08/19 02:21:32;;;;;;;49.67;29.35;;;15.80;99.90;;;;;;5011695;28;20108;-76
2021/08/19 02:23:59;;;;;;;50.28;31.15;;;15.80;99.90;;;;;;4985957;28;20061;-76
2021/08/19 02:26:25;;;;;;;50.92;30.63;;;15.70;99.90;;;;;;4998956;28;20117;-77
2021/08/19 02:28:52;;;;;;;49.28;31.63;;;15.80;99.90;;;;;;5017042;28;20051;-76
2021/08/19 02:31:19;;;;;;;56.50;30.95;;;15.70;99.90;;;;;;5016619;28;20450;-77
2021/08/19 02:33:46;;;;;;;53.05;30.75;;;15.70;99.90;;;;;;5015958;28;20043;-77
2021/08/19 02:36:13;;;;;;;60.03;34.88;;;15.70;99.90;;;;;;4982188;28;20310;-76
2021/08/19 02:38:39;;;;;;;53.05;33.10;;;15.70;99.90;;;;;;4967414;28;20057;-76
2021/08/19 02:41:06;;;;;;;53.55;34.42;;;15.70;99.90;;;;;;4967517;28;20046;-77
2021/08/19 02:43:38;;;;;;;58.28;35.63;;;15.70;99.90;;;;;;4989213;28;20124;-76
2021/08/19 02:46:05;;;;;;;56.97;36.30;;;15.70;99.90;;;;;;5002727;28;20057;-77
2021/08/19 02:48:32;;;;;;;61.78;36.50;;;15.60;99.90;;;;;;4990919;28;20494;-77
2021/08/19 02:50:58;;;;;;;57.22;35.47;;;15.60;99.90;;;;;;4971402;28;20148;-77
2021/08/19 02:53:25;;;;;;;56.03;35.08;;;15.60;99.90;;;;;;4983610;28;20128;-77
2021/08/19 02:55:52;;;;;;;56.17;36.28;;;15.50;99.90;;;;;;4983174;28;20236;-76
2021/08/19 02:58:19;;;;;;;55.13;35.67;;;15.60;99.90;;;;;;4967022;28;20054;-76
2021/08/19 03:00:45;;;;;;;57.15;34.33;;;15.60;99.90;;;;;;4984248;28;20050;-77
2021/08/19 03:03:12;;;;;;;61.70;37.67;;;15.70;99.90;;;;;;4967306;28;20078;-76
2021/08/19 03:05:39;;;;;;;60.97;35.72;;;15.70;99.90;;;;;;4983489;28;20133;-76
2021/08/19 03:08:06;;;;;;;53.05;34.28;;;15.60;99.90;;;;;;4983657;28;20458;-76
2021/08/19 03:10:32;;;;;;;55.72;34.15;;;15.60;99.90;;;;;;4967198;28;20050;-77
2021/08/19 03:12:59;;;;;;;56.30;34.60;;;15.50;99.90;;;;;;4983604;28;20138;-76
2021/08/19 03:15:26;;;;;;;49.40;31.92;;;15.50;99.90;;;;;;4992989;28;20221;-76
2021/08/19 03:17:53;;;;;;;51.40;31.98;;;15.40;99.90;;;;;;5000466;28;20034;-76
2021/08/19 03:20:21;;;;;;;48.42;32.75;;;15.40;99.90;;;;;;4982507;28;20055;-76
2021/08/19 03:22:50;;;;;;;57.20;34.13;;;15.40;99.90;;;;;;4982701;28;20050;-76
2021/08/19 03:25:18;;;;;;;59.78;35.10;;;15.40;99.90;;;;;;4964486;28;20055;-76
2021/08/19 03:27:45;;;;;;;58.28;33.63;;;15.40;99.90;;;;;;5000150;28;20345;-75
2021/08/19 03:30:12;;;;;;;63.20;35.58;;;15.40;99.90;;;;;;4967300;28;20136;-76
2021/08/19 03:32:40;;;;;;;59.03;35.65;;;15.30;99.90;;;;;;5017010;28;20125;-76
2021/08/19 03:35:08;;;;;;;62.55;35.75;;;15.30;99.90;;;;;;4979647;28;20066;-76
2021/08/19 03:37:35;;;;;;;61.25;36.88;;;15.30;99.90;;;;;;4972537;28;20175;-76
2021/08/19 03:40:04;;;;;;;68.43;39.67;;;15.30;99.90;;;;;;4982695;28;20149;-76
2021/08/19 03:42:31;;;;;;;64.55;38.67;;;15.30;99.90;;;;;;4967714;28;20046;-76
2021/08/19 03:44:58;;;;;;;68.32;40.33;;;15.40;99.90;;;;;;4995064;28;20121;-76
2021/08/19 03:47:26;;;;;;;67.50;38.83;;;15.30;99.90;;;;;;4984237;28;20069;-76
2021/08/19 03:49:53;;;;;;;79.40;43.35;;;15.40;99.90;;;;;;4967646;28;20050;-76
2021/08/19 03:52:20;;;;;;;76.80;42.80;;;15.40;99.90;;;;;;4981283;28;20046;-76
2021/08/19 03:54:47;;;;;;;75.22;43.70;;;15.50;99.90;;;;;;4984837;28;20046;-76
2021/08/19 03:57:14;;;;;;;84.65;47.55;;;15.40;99.90;;;;;;4982517;28;20360;-76
2021/08/19 03:59:41;;;;;;;83.72;46.92;;;15.50;99.90;;;;;;4983374;28;20046;-76
2021/08/19 04:02:07;;;;;;;84.97;47.10;;;15.50;99.90;;;;;;4983249;28;20042;-76
2021/08/19 04:04:34;;;;;;;85.75;46.28;;;15.40;99.90;;;;;;4966899;28;20390;-76
2021/08/19 04:07:01;;;;;;;80.55;45.90;;;15.40;99.90;;;;;;4967317;28;20050;-76
2021/08/19 04:09:31;;;;;;;83.90;46.17;;;15.40;99.90;;;;;;4968395;28;20463;-77
2021/08/19 04:11:57;;;;;;;81.22;45.47;;;15.40;99.90;;;;;;4967647;28;20046;-77
2021/08/19 04:14:24;;;;;;;83.22;45.72;;;15.40;99.90;;;;;;4992871;28;20122;-76
2021/08/19 04:16:51;;;;;;;83.75;44.33;;;15.50;99.90;;;;;;4969730;28;20085;-76
2021/08/19 04:19:17;;;;;;;78.07;44.53;;;15.50;99.90;;;;;;4984014;28;20104;-77
2021/08/19 04:21:44;;;;;;;81.78;45.20;;;15.50;99.90;;;;;;4983808;28;20050;-77
2021/08/19 04:24:11;;;;;;;85.38;46.33;;;15.60;99.90;;;;;;4993883;28;20050;-76
2021/08/19 04:26:38;;;;;;;77.30;41.38;;;15.50;99.90;;;;;;5005713;28;20042;-75
2021/08/19 04:29:05;;;;;;;74.70;41.75;;;15.50;99.90;;;;;;4991422;28;20051;-75
2021/08/19 04:31:31;;;;;;;74.25;43.95;;;15.40;99.90;;;;;;4990707;28;20058;-76
2021/08/19 04:33:58;;;;;;;75.00;42.05;;;15.50;99.90;;;;;;5007743;28;20312;-75
2021/08/19 04:36:25;;;;;;;79.60;42.20;;;15.50;99.90;;;;;;5005763;28;20100;-75
2021/08/19 04:38:52;;;;;;;73.10;42.03;;;15.60;99.90;;;;;;4995701;28;20596;-76
2021/08/19 04:41:19;;;;;;;74.38;41.92;;;15.50;99.90;;;;;;4987218;28;20074;-76
2021/08/19 04:43:45;;;;;;;71.22;41.72;;;15.50;99.90;;;;;;5010259;28;20038;-76
2021/08/19 04:46:12;;;;;;;71.30;42.75;;;15.60;99.90;;;;;;4982280;28;20104;-77
2021/08/19 04:48:39;;;;;;;73.10;42.15;;;15.60;99.90;;;;;;4993896;28;20062;-77
2021/08/19 04:51:06;;;;;;;75.47;41.15;;;15.60;99.90;;;;;;4977722;28;20074;-76
2021/08/19 04:53:33;;;;;;;76.40;43.58;;;15.60;99.90;;;;;;4973307;28;20050;-76
2021/08/19 04:56:00;;;;;;;76.93;43.53;;;15.60;99.90;;;;;;4953341;28;20050;-77
2021/08/19 04:58:28;;;;;;;71.90;39.92;;;15.60;99.90;;;;;;4997165;28;20041;-76
2021/08/19 05:00:55;;;;;;;77.68;43.78;;;15.60;99.90;;;;;;5004760;28;20077;-76
2021/08/19 05:03:22;;;;;;;74.57;43.80;;;15.50;99.90;;;;;;4971847;28;20077;-77
2021/08/19 05:05:49;;;;;;;68.78;40.42;;;15.60;99.90;;;;;;5001516;28;20151;-74
2021/08/19 05:08:16;;;;;;;70.60;42.20;;;15.60;99.90;;;;;;4990090;28;20058;-77
2021/08/19 05:10:43;;;;;;;73.90;41.05;;;15.60;99.90;;;;;;5026063;28;20100;-76
2021/08/19 05:13:10;;;;;;;73.45;40.97;;;15.60;99.90;;;;;;5011740;28;20038;-77
2021/08/19 05:15:36;;;;;;;67.38;40.80;;;15.70;99.90;;;;;;5017800;28;20027;-76
2021/08/19 05:18:03;;;;;;;72.72;42.35;;;15.60;99.90;;;;;;5009686;28;20180;-77
2021/08/19 05:20:31;;;;;;;64.97;38.80;;;15.60;99.90;;;;;;5026081;28;20557;-76
2021/08/19 05:22:57;;;;;;;64.32;38.45;;;15.60;99.90;;;;;;5043899;28;20062;-76
2021/08/19 05:25:24;;;;;;;61.40;38.63;;;15.60;99.90;;;;;;4994230;28;20023;-76
2021/08/19 05:27:51;;;;;;;63.80;38.13;;;15.60;99.90;;;;;;4987738;28;20049;-77
2021/08/19 05:30:18;;;;;;;65.55;37.38;;;15.60;99.90;;;;;;5002896;28;20182;-77
2021/08/19 05:32:44;;;;;;;56.17;34.47;;;15.70;99.90;;;;;;5020318;28;20514;-76
2021/08/19 05:35:11;;;;;;;51.40;32.78;;;15.70;99.90;;;;;;4987827;28;20061;-77
2021/08/19 05:37:38;;;;;;;58.78;34.05;;;15.70;99.90;;;;;;4986839;28;20046;-77
2021/08/19 05:40:05;;;;;;;59.30;34.88;;;15.70;99.90;;;;;;5019874;28;20142;-76
2021/08/19 05:42:32;;;;;;;54.03;33.80;;;15.80;99.90;;;;;;4989948;28;20050;-77
2021/08/19 05:44:59;;;;;;;54.90;35.00;;;15.90;99.90;;;;;;4980501;28;20132;-76
2021/08/19 05:47:26;;;;;;;56.97;35.75;;;15.90;99.90;;;;;;4987264;28;20064;-77
2021/08/19 05:49:52;;;;;;;67.15;38.60;;;15.90;99.90;;;;;;4987794;28;20129;-77
2021/08/19 05:52:19;;;;;;;58.65;35.90;;;16.00;99.90;;;;;;5017427;28;20049;-75
2021/08/19 05:54:46;;;;;;;52.55;32.85;;;15.90;99.90;;;;;;5018161;28;20457;-75
2021/08/19 05:57:16;;;;;;;51.63;32.05;;;15.70;99.90;;;;;;4970316;28;20054;-76
2021/08/19 05:59:43;;;;;;;58.50;35.45;;;15.70;99.90;;;;;;4997954;28;20418;-76
2021/08/19 06:02:10;;;;;;;58.20;36.25;;;15.60;99.90;;;;;;5000512;28;20249;-76
2021/08/19 06:04:37;;;;;;;55.30;34.85;;;15.50;99.90;;;;;;4985083;28;20061;-76
2021/08/19 06:07:08;;;;;;;55.85;34.45;;;15.50;99.90;;;;;;4984815;28;20117;-76
2021/08/19 06:09:36;;;;;;;60.97;33.85;;;15.50;99.90;;;;;;4968969;28;20073;-76
2021/08/19 06:12:04;;;;;;;51.25;32.83;;;15.40;99.90;;;;;;4984060;28;20131;-76
2021/08/19 06:14:31;;;;;;;49.42;29.65;;;15.40;99.90;;;;;;4986867;28;20037;-75
2021/08/19 06:16:59;;;;;;;48.58;30.23;;;15.40;99.90;;;;;;4967498;28;20046;-76
2021/08/19 06:19:25;;;;;;;55.88;32.25;;;15.30;99.90;;;;;;4983246;28;20116;-76
2021/08/19 06:21:52;;;;;;;48.60;29.35;;;15.30;99.90;;;;;;4968145;28;20046;-74
2021/08/19 06:24:19;;;;;;;45.90;28.48;;;15.30;99.90;;;;;;4984763;28;20058;-75
2021/08/19 06:26:46;;;;;;;45.08;26.15;;;15.30;99.90;;;;;;4967612;28;20047;-76
2021/08/19 06:29:13;;;;;;;40.38;25.25;;;15.30;99.90;;;;;;4992557;28;20506;-76
2021/08/19 06:31:40;;;;;;;41.85;25.05;;;15.30;99.90;;;;;;4994080;28;20047;-76
2021/08/19 06:34:07;;;;;;;40.10;24.52;;;15.40;99.90;;;;;;4972561;28;20050;-76
2021/08/19 06:36:34;;;;;;;38.22;22.65;;;15.40;99.90;;;;;;4978512;28;20057;-76
2021/08/19 06:39:01;;;;;;;36.20;23.08;;;15.30;99.90;;;;;;4985760;28;20527;-74
2021/08/19 06:41:27;;;;;;;34.17;21.55;;;15.40;99.90;;;;;;4981647;28;20050;-75
2021/08/19 06:43:54;;;;;;;32.47;20.45;;;15.40;99.90;;;;;;4994838;28;20109;-74
2021/08/19 06:46:21;;;;;;;32.55;19.05;;;15.40;99.90;;;;;;4985612;28;20104;-74
2021/08/19 06:48:48;;;;;;;29.17;19.33;;;15.30;99.90;;;;;;4951867;28;20047;-74
2021/08/19 06:51:15;;;;;;;30.98;19.35;;;15.30;99.90;;;;;;4986122;28;20100;-74
2021/08/19 06:53:41;;;;;;;28.33;17.27;;;15.40;99.90;;;;;;4967496;28;20042;-73
2021/08/19 06:56:08;;;;;;;28.40;18.17;;;15.50;99.90;;;;;;4985100;28;20062;-74
2021/08/19 06:58:35;;;;;;;26.88;17.90;;;15.60;99.90;;;;;;4979523;28;20069;-75
2021/08/19 07:01:02;;;;;;;28.38;18.45;;;15.70;99.90;;;;;;4996700;28;20047;-74
2021/08/19 07:03:29;;;;;;;31.73;18.33;;;15.80;99.90;;;;;;4964643;28;20462;-74
2021/08/19 07:05:56;;;;;;;27.38;18.05;;;15.90;99.90;;;;;;4964453;28;20046;-74
2021/08/19 07:08:23;;;;;;;28.35;19.02;;;16.00;99.90;;;;;;4982040;28;20050;-73
2021/08/19 07:10:50;;;;;;;25.40;18.13;;;16.00;99.90;;;;;;4981711;28;20054;-74
2021/08/19 07:13:18;;;;;;;30.77;19.67;;;16.00;99.90;;;;;;4988346;28;20046;-74
2021/08/19 07:15:45;;;;;;;27.30;18.48;;;15.90;99.90;;;;;;4991370;28;20046;-74
2021/08/19 07:18:13;;;;;;;30.83;21.50;;;15.90;99.90;;;;;;4966834;28;20046;-74
2021/08/19 07:20:40;;;;;;;29.13;19.42;;;15.90;99.90;;;;;;4967080;28;20351;-74
2021/08/19 07:23:06;;;;;;;34.30;21.58;;;15.90;99.90;;;;;;5015711;28;20046;-73
2021/08/19 07:25:34;;;;;;;33.50;21.58;;;15.90;99.90;;;;;;4999174;28;20283;-75
2021/08/19 07:28:01;;;;;;;35.03;20.70;;;16.00;99.90;;;;;;5015611;28;20038;-73
2021/08/19 07:30:27;;;;;;;37.92;22.50;;;16.00;99.90;;;;;;4998116;28;20050;-73
2021/08/19 07:32:54;;;;;;;43.40;24.52;;;16.00;99.90;;;;;;4967744;28;20051;-73
2021/08/19 07:35:21;;;;;;;43.40;27.75;;;15.90;99.90;;;;;;4966643;28;20289;-74
2021/08/19 07:37:51;;;;;;;46.30;28.75;;;15.80;99.90;;;;;;4998442;28;20204;-75
2021/08/19 07:40:19;;;;;;;46.00;28.58;;;15.80;99.90;;;;;;4983211;28;20050;-73
2021/08/19 07:42:47;;;;;;;49.03;30.05;;;15.80;99.90;;;;;;4986090;28;20491;-74
2021/08/19 07:45:15;;;;;;;52.08;30.70;;;15.80;99.90;;;;;;4993651;28;20565;-74
2021/08/19 07:47:42;;;;;;;55.30;30.90;;;15.90;99.90;;;;;;5002655;28;20108;-75
2021/08/19 07:50:10;;;;;;;58.53;32.85;;;15.90;99.90;;;;;;4992431;28;20050;-75
2021/08/19 07:52:39;;;;;;;63.22;34.85;;;15.90;99.90;;;;;;4984478;28;20396;-74
2021/08/19 07:55:08;;;;;;;68.18;36.38;;;15.90;99.90;;;;;;4983436;28;20046;-73
2021/08/19 07:57:47;;;;;;;72.32;37.75;;;15.90;99.90;;;;;;4982299;28;20046;-73
2021/08/19 08:00:27;;;;;;;73.43;38.78;;;16.00;99.90;;;;;;4970937;28;20054;-73
2021/08/19 08:02:55;;;;;;;71.53;38.15;;;16.10;99.90;;;;;;4967051;28;20520;-74
2021/08/19 08:05:24;;;;;;;73.20;38.65;;;16.10;99.90;;;;;;4983324;28;20053;-74
2021/08/19 08:07:52;;;;;;;81.07;41.92;;;16.00;99.90;;;;;;4982016;28;20058;-74
2021/08/19 08:10:20;;;;;;;78.20;38.78;;;16.00;99.90;;;;;;4981950;28;20133;-73
2021/08/19 08:12:47;;;;;;;73.32;39.80;;;16.00;99.90;;;;;;4967387;28;20046;-74
2021/08/19 08:15:14;;;;;;;74.07;37.72;;;16.00;99.90;;;;;;5009343;28;20053;-74
2021/08/19 08:17:41;;;;;;;70.82;37.80;;;16.00;99.90;;;;;;4966447;28;20046;-73
2021/08/19 08:20:10;;;;;;;71.85;37.20;;;16.00;99.90;;;;;;4965588;28;20097;-74
2021/08/19 08:22:40;;;;;;;67.38;37.25;;;16.00;99.90;;;;;;4982495;28;20240;-73
2021/08/19 08:25:16;;;;;;;63.78;35.20;;;16.00;99.90;;;;;;4981413;28;20062;-74
2021/08/19 08:28:04;;;;;;;63.45;33.80;;;16.00;99.90;;;;;;4981864;28;20402;-74
2021/08/19 08:30:35;;;;;;;59.65;31.80;;;16.10;99.90;;;;;;4981988;28;20051;-73
2021/08/19 08:33:03;;;;;;;58.63;32.47;;;16.20;99.90;;;;;;4963371;28;20074;-73
2021/08/19 08:35:34;;;;;;;57.08;31.10;;;16.20;99.90;;;;;;4983208;28;20054;-74
2021/08/19 08:38:02;;;;;;;60.50;31.65;;;16.20;99.90;;;;;;4982225;28;20418;-74
2021/08/19 08:40:33;;;;;;;51.92;29.85;;;16.20;99.90;;;;;;4964036;28;20131;-74
2021/08/19 08:43:00;;;;;;;54.72;27.88;;;16.20;99.90;;;;;;4989599;28;20421;-74
2021/08/19 08:45:28;;;;;;;50.33;27.83;;;16.10;99.90;;;;;;4977014;28;20054;-73
2021/08/19 08:47:55;;;;;;;50.53;27.10;;;16.10;99.90;;;;;;4981999;28;20097;-74
2021/08/19 08:50:24;;;;;;;60.00;32.70;;;16.10;99.90;;;;;;4983924;28;20057;-74
2021/08/19 08:52:52;;;;;;;46.92;25.38;;;16.20;99.90;;;;;;4988102;28;20562;-74
2021/08/19 08:55:19;;;;;;;34.92;19.95;;;16.30;99.90;;;;;;4981472;28;20074;-74
2021/08/19 08:57:47;;;;;;;33.33;18.25;;;16.20;99.90;;;;;;4982147;28;20058;-75
2021/08/19 09:00:14;;;;;;;28.33;17.33;;;16.30;99.90;;;;;;4994744;28;20080;-74
2021/08/19 09:02:41;;;;;;;29.65;16.67;;;16.30;99.90;;;;;;4980555;28;20062;-74
2021/08/19 09:05:20;;;;;;;30.17;17.98;;;16.20;99.90;;;;;;4983986;28;20113;-75
2021/08/19 09:08:00;;;;;;;34.45;17.42;;;16.20;99.90;;;;;;4981493;28;20101;-75
2021/08/19 09:10:31;;;;;;;38.28;19.98;;;16.10;99.90;;;;;;4965382;28;20054;-75
2021/08/19 09:13:14;;;;;;;52.60;25.27;;;16.00;99.90;;;;;;4967627;28;20061;-75
2021/08/19 09:15:42;;;;;;;67.28;31.55;;;16.00;99.90;;;;;;4998537;28;20077;-75
2021/08/19 09:18:09;;;;;;;79.10;37.35;;;15.90;99.90;;;;;;4962665;28;20055;-74
2021/08/19 09:20:39;;;;;;;81.40;36.70;;;15.90;99.90;;;;;;4962713;28;20067;-74
2021/08/19 09:23:13;;;;;;;82.35;39.03;;;15.90;99.90;;;;;;4977122;28;20054;-75
2021/08/19 09:25:42;;;;;;;87.15;39.92;;;16.00;99.90;;;;;;4949432;28;20101;-75
2021/08/19 09:28:21;;;;;;;77.63;38.97;;;16.20;99.90;;;;;;4981519;28;20136;-74
2021/08/19 09:31:05;;;;;;;77.78;39.45;;;16.30;99.90;;;;;;4964301;28;20483;-75
2021/08/19 09:33:37;;;;;;;76.97;38.23;;;16.30;99.90;;;;;;4980986;28;20347;-74
2021/08/19 09:36:06;;;;;;;73.13;38.00;;;16.30;99.90;;;;;;4984480;28;20077;-74
2021/08/19 09:38:39;;;;;;;78.65;39.95;;;16.30;99.90;;;;;;4969036;28;20457;-75
2021/08/19 09:41:17;;;;;;;74.03;37.25;;;16.30;99.90;;;;;;4984999;28;20081;-75
2021/08/19 09:43:52;;;;;;;69.95;37.13;;;16.10;99.90;;;;;;4994409;28;20501;-75
2021/08/19 09:46:31;;;;;;;68.53;36.25;;;16.10;99.90;;;;;;4981813;28;20244;-73
2021/08/19 09:49:00;;;;;;;70.22;36.30;;;16.00;99.90;;;;;;5004945;28;20369;-74
2021/08/19 09:51:28;;;;;;;67.07;33.15;;;16.10;99.90;;;;;;5003954;28;20438;-74
2021/08/19 09:53:59;;;;;;;49.45;27.00;;;16.00;99.90;;;;;;4992000;28;20426;-74
2021/08/19 09:56:31;;;;;;;70.20;34.00;;;15.90;99.90;;;;;;4985456;28;20042;-74
2021/08/19 09:59:18;;;;;;;63.38;32.92;;;15.90;99.90;;;;;;4984170;28;20105;-74
2021/08/19 10:01:55;;;;;;;80.38;37.45;;;15.70;99.90;;;;;;4984362;28;20046;-75
2021/08/19 10:04:25;;;;;;;80.90;38.30;;;15.60;99.90;;;;;;4967834;28;20058;-74
2021/08/19 10:06:56;;;;;;;69.22;34.55;;;15.70;99.90;;;;;;4982776;28;20049;-74
2021/08/19 10:09:23;;;;;;;80.18;38.50;;;15.70;99.90;;;;;;4968130;28;20054;-75
2021/08/19 10:11:52;;;;;;;79.32;41.20;;;15.70;99.90;;;;;;4983473;28;20589;-75
2021/08/19 10:14:22;;;;;;;83.45;39.45;;;15.70;99.90;;;;;;4958414;28;20522;-75
2021/08/19 10:16:50;;;;;;;84.55;40.05;;;15.80;99.90;;;;;;4966917;28;20047;-76
2021/08/19 10:19:34;;;;;;;87.35;41.85;;;15.80;99.90;;;;;;4983224;28;20054;-74
2021/08/19 10:22:12;;;;;;;77.75;40.63;;;15.80;99.90;;;;;;4983206;28;20068;-76
2021/08/19 10:24:42;;;;;;;76.72;41.00;;;15.80;99.90;;;;;;4966178;28;20045;-75
2021/08/19 10:27:12;;;;;;;85.10;42.08;;;15.80;99.90;;;;;;4996277;28;20058;-75
2021/08/19 10:29:48;;;;;;;88.78;43.67;;;15.80;99.90;;;;;;4983872;28;20101;-76
2021/08/19 10:32:29;;;;;;;78.63;40.25;;;15.90;99.90;;;;;;4985311;28;20054;-74
2021/08/19 10:35:09;;;;;;;93.63;42.78;;;15.90;99.90;;;;;;4967518;28;20047;-75
2021/08/19 10:37:45;;;;;;;81.80;41.83;;;16.00;99.90;;;;;;4978412;28;20060;-74
2021/08/19 10:40:24;;;;;;;82.72;41.95;;;16.00;99.90;;;;;;4983231;28;20050;-74
2021/08/19 10:42:55;;;;;;;92.90;44.92;;;15.80;99.90;;;;;;4989877;28;20050;-73
2021/08/19 10:45:28;;;;;;;95.47;45.70;;;15.90;99.90;;;;;;4990736;28;20212;-77
2021/08/19 10:48:01;;;;;;;95.63;45.05;;;15.80;99.90;;;;;;4967596;28;20062;-75
2021/08/19 10:50:43;;;;;;;90.57;46.05;;;15.90;99.90;;;;;;4963552;28;20569;-73
2021/08/19 10:53:11;;;;;;;98.78;48.05;;;15.90;99.90;;;;;;4964581;28;20059;-74
2021/08/19 10:55:44;;;;;;;84.30;45.70;;;15.90;99.90;;;;;;4931600;28;20055;-75
2021/08/19 10:58:35;;;;;;;84.50;45.78;;;15.90;99.90;;;;;;4981855;28;20156;-74
2021/08/19 11:01:02;;;;;;;93.88;45.88;;;15.90;99.90;;;;;;4999767;28;20050;-73
2021/08/19 11:03:38;;;;;;;91.40;47.80;;;15.90;99.90;;;;;;4977082;28;20671;-74
2021/08/19 11:06:06;;;;;;;89.93;49.05;;;16.00;99.90;;;;;;4962983;28;20125;-75
2021/08/19 11:08:43;;;;;;;90.63;48.55;;;15.90;99.90;;;;;;4984837;28;20058;-75
2021/08/19 11:11:12;;;;;;;93.70;49.15;;;16.10;99.90;;;;;;4981810;28;20050;-73
2021/08/19 11:13:40;;;;;;;89.55;49.28;;;16.20;99.90;;;;;;5007951;28;20053;-73
2021/08/19 11:16:12;;;;;;;88.68;49.97;;;16.30;99.90;;;;;;4971854;28;20514;-74
2021/08/19 11:18:40;;;;;;;83.93;49.85;;;16.40;99.90;;;;;;4982205;28;20058;-73
2021/08/19 11:21:09;;;;;;;86.38;48.13;;;16.40;99.90;;;;;;4981760;28;20058;-75
2021/08/19 11:23:39;;;;;;;80.57;48.40;;;16.40;99.90;;;;;;4968909;28;20441;-74
2021/08/19 11:26:12;;;;;;;83.20;46.25;;;16.40;99.90;;;;;;4998116;28;20372;-73
2021/08/19 11:28:43;;;;;;;92.22;47.15;;;16.50;99.90;;;;;;4982683;28;20058;-74
2021/08/19 11:31:14;;;;;;;74.85;43.58;;;16.60;99.90;;;;;;4983165;28;20050;-74
2021/08/19 11:33:43;;;;;;;77.28;43.33;;;16.60;99.90;;;;;;4983819;28;20046;-74
2021/08/19 11:36:13;;;;;;;72.95;42.05;;;16.60;99.90;;;;;;4984295;28;20050;-73
2021/08/19 11:38:43;;;;;;;71.65;44.53;;;16.60;99.90;;;;;;4982871;28;20058;-72
2021/08/19 11:41:21;;;;;;;67.63;40.38;;;16.70;99.90;;;;;;4964371;28;20506;-74
2021/08/19 11:43:49;;;;;;;61.22;35.33;;;16.70;99.90;;;;;;4990727;28;20046;-74
2021/08/19 11:46:24;;;;;;;59.05;37.30;;;16.60;99.90;;;;;;4979690;28;20423;-73
2021/08/19 11:48:55;;;;;;;;;;;16.60;99.90;;;;;;5002529;28;20152;-75
2021/08/19 11:51:29;;;;;;;55.72;34.75;;;16.80;99.90;;;;;;5003470;28;20408;-74
2021/08/19 11:54:05;;;;;;;56.83;34.75;;;16.90;99.90;;;;;;4973324;28;20064;-74
2021/08/19 11:56:34;;;;;;;53.60;34.90;;;17.10;99.90;;;;;;4983107;28;20434;-75
2021/08/19 11:59:12;;;;;;;54.10;35.63;;;17.10;99.90;;;;;;4965898;28;20519;-74
2021/08/19 12:01:52;;;;;;;60.35;38.38;;;17.00;99.90;;;;;;4984431;28;20438;-74
2021/08/19 12:04:29;;;;;;;57.95;35.67;;;17.20;99.90;;;;;;4984270;28;20511;-74
2021/08/19 12:07:00;;;;;;;59.97;37.90;;;17.20;99.90;;;;;;4982241;28;20055;-75
2021/08/19 12:09:29;;;;;;;61.75;38.30;;;17.20;99.90;;;;;;4982879;28;20120;-75
2021/08/19 12:11:56;;;;;;;61.70;37.80;;;17.10;99.90;;;;;;4981493;28;20145;-74
2021/08/19 12:14:25;;;;;;;58.08;35.95;;;17.10;99.90;;;;;;4989454;28;20271;-74
2021/08/19 12:16:55;;;;;;;65.07;39.42;;;17.00;99.90;;;;;;4984060;28;20130;-73
2021/08/19 12:19:24;;;;;;;69.50;41.20;;;16.70;99.90;;;;;;4998579;28;20064;-74
2021/08/19 12:21:54;;;;;;;48.42;29.98;;;16.70;99.90;;;;;;4964858;28;20100;-74
2021/08/19 12:24:29;;;;;;;43.55;25.70;;;16.70;99.90;;;;;;4981337;28;20057;-74
2021/08/19 12:27:08;;;;;;;39.95;24.35;;;16.70;99.90;;;;;;5012663;28;20038;-73
2021/08/19 12:29:48;;;;;;;34.42;22.17;;;16.80;99.90;;;;;;4981897;28;20437;-73
2021/08/19 12:32:35;;;;;;;25.98;17.70;;;16.80;99.90;;;;;;4981349;28;20043;-73
2021/08/19 12:35:07;;;;;;;28.73;18.75;;;16.80;99.90;;;;;;4985908;28;20511;-76
2021/08/19 12:37:36;;;;;;;29.13;19.70;;;16.70;99.90;;;;;;4983203;28;20054;-74